createdAt,value
2017-11-06T00:01:26.706Z,34.30
2017-11-06T00:03:54.976Z,31.13
2017-11-06T00:06:23.259Z,37.53
2017-11-06T00:08:51.528Z,30.97
2017-11-06T00:11:19.814Z,36.00
2017-11-06T00:13:48.079Z,31.20
2017-11-06T00:16:16.368Z,28.33
2017-11-06T00:18:44.631Z,29.60
2017-11-06T00:21:12.967Z,28.93
2017-11-06T00:23:40.475Z,47.63
2017-11-06T00:26:08.745Z,32.20
2017-11-06T00:28:37.031Z,31.60
2017-11-06T00:31:05.300Z,28.23
2017-11-06T00:33:33.588Z,30.90
2017-11-06T00:36:01.086Z,35.10
2017-11-06T00:38:28.599Z,33.50
2017-11-06T00:40:56.872Z,32.10
2017-11-06T00:43:25.150Z,35.83
2017-11-06T00:45:53.416Z,36.73
2017-11-06T00:48:21.700Z,31.50
2017-11-06T00:50:49.967Z,33.83
2017-11-06T00:53:18.299Z,38.77
2017-11-06T00:55:45.795Z,30.70
2017-11-06T00:58:14.068Z,33.57
2017-11-06T01:00:41.589Z,34.93
2017-11-06T01:03:09.083Z,34.43
2017-11-06T01:05:36.598Z,35.97
2017-11-06T01:08:04.107Z,37.57
2017-11-06T01:10:32.383Z,33.73
2017-11-06T01:13:00.646Z,35.70
2017-11-06T01:15:28.167Z,35.30
2017-11-06T01:17:55.671Z,43.30
2017-11-06T01:20:23.960Z,34.47
2017-11-06T01:22:52.226Z,35.30
2017-11-06T01:25:20.495Z,39.03
2017-11-06T01:27:48.023Z,34.63
2017-11-06T01:30:16.292Z,35.33
2017-11-06T01:32:43.803Z,36.40
2017-11-06T01:35:12.066Z,33.83
2017-11-06T01:37:39.579Z,36.53
2017-11-06T01:40:07.072Z,35.27
2017-11-06T01:42:34.587Z,35.20
2017-11-06T01:45:02.087Z,31.07
2017-11-06T01:47:29.602Z,34.27
2017-11-06T01:49:57.104Z,36.17
2017-11-06T01:52:24.609Z,26.20
2017-11-06T01:54:52.127Z,25.63
2017-11-06T01:57:19.623Z,28.87
2017-11-06T01:59:47.139Z,32.63
2017-11-06T02:02:14.645Z,27.07
2017-11-06T02:04:42.165Z,23.13
2017-11-06T02:07:10.425Z,27.90
2017-11-06T02:09:37.948Z,28.33
2017-11-06T02:12:05.480Z,31.80
2017-11-06T02:14:33.760Z,32.00
2017-11-06T02:17:01.270Z,29.50
2017-11-06T02:19:28.832Z,30.20
2017-11-06T02:21:56.331Z,29.47
2017-11-06T02:24:23.825Z,32.53
2017-11-06T02:26:51.343Z,38.47
2017-11-06T02:29:19.608Z,31.47
2017-11-06T02:31:47.882Z,29.90
2017-11-06T02:34:16.147Z,34.40
2017-11-06T02:36:43.666Z,27.20
2017-11-06T02:39:11.168Z,28.50
2017-11-06T02:41:39.449Z,31.20
2017-11-06T02:44:07.710Z,26.97
2017-11-06T02:46:35.276Z,26.47
2017-11-06T02:49:03.549Z,29.43
2017-11-06T02:51:31.047Z,35.33
2017-11-06T02:53:58.560Z,29.87
2017-11-06T02:56:26.068Z,33.67
2017-11-06T02:58:53.587Z,32.20
2017-11-06T03:01:21.847Z,28.17
2017-11-06T03:03:49.363Z,32.90
2017-11-06T03:06:16.864Z,29.43
2017-11-06T03:08:44.384Z,32.13
2017-11-06T03:11:11.888Z,27.97
2017-11-06T03:13:39.407Z,26.83
2017-11-06T03:16:06.915Z,28.50
2017-11-06T03:18:35.183Z,31.70
2017-11-06T03:21:02.695Z,28.93
2017-11-06T03:23:30.200Z,37.27
2017-11-06T03:25:58.491Z,37.03
2017-11-06T03:28:26.759Z,34.40
2017-11-06T03:30:55.043Z,39.30
2017-11-06T03:33:23.307Z,35.70
2017-11-06T03:35:51.592Z,32.33
2017-11-06T03:38:19.867Z,36.47
2017-11-06T03:40:48.171Z,36.97
2017-11-06T03:43:15.675Z,32.67
2017-11-06T03:45:43.170Z,33.10
2017-11-06T03:48:10.691Z,35.93
2017-11-06T03:50:38.195Z,32.93
2017-11-06T03:53:05.719Z,34.20
2017-11-06T03:55:33.984Z,35.43
2017-11-06T03:58:01.495Z,40.33
2017-11-06T04:00:29.000Z,40.03
2017-11-06T04:02:56.527Z,37.70
2017-11-06T04:05:24.028Z,35.87
2017-11-06T04:07:52.366Z,42.57
2017-11-06T04:10:19.863Z,36.13
2017-11-06T04:12:47.363Z,38.27
2017-11-06T04:15:14.879Z,35.17
2017-11-06T04:17:43.171Z,40.13
2017-11-06T04:20:11.455Z,34.73
2017-11-06T04:22:38.964Z,40.40
2017-11-06T04:25:06.479Z,35.67
2017-11-06T04:27:33.979Z,35.27
2017-11-06T04:30:01.516Z,30.67
2017-11-06T04:32:29.014Z,33.50
2017-11-06T04:34:56.536Z,31.17
2017-11-06T04:37:24.047Z,27.57
2017-11-06T04:39:52.319Z,24.23
2017-11-06T04:42:20.594Z,26.43
2017-11-06T04:44:48.864Z,21.30
2017-11-06T04:47:17.147Z,24.00
2017-11-06T04:49:45.415Z,19.53
2017-11-06T04:52:13.698Z,16.27
2017-11-06T04:54:41.967Z,18.77
2017-11-06T04:57:09.507Z,17.97
2017-11-06T04:59:37.010Z,14.10
2017-11-06T05:02:04.503Z,15.10
2017-11-06T05:04:32.020Z,17.13
2017-11-06T05:07:00.287Z,22.60
2017-11-06T05:09:28.563Z,18.57
2017-11-06T05:11:56.828Z,15.20
2017-11-06T05:14:25.108Z,13.10
2017-11-06T05:16:53.372Z,13.80
2017-11-06T05:19:20.938Z,11.87
2017-11-06T05:21:49.203Z,14.73
2017-11-06T05:24:16.708Z,16.83
2017-11-06T05:26:44.219Z,14.57
2017-11-06T05:29:11.711Z,19.90
2017-11-06T05:31:39.223Z,16.30
2017-11-06T05:34:06.735Z,13.40
2017-11-06T05:36:34.251Z,18.50
2017-11-06T05:39:01.747Z,14.93
2017-11-06T05:41:29.323Z,15.47
2017-11-06T05:43:56.818Z,17.60
2017-11-06T05:46:24.324Z,15.83
2017-11-06T05:48:51.834Z,13.77
2017-11-06T05:51:19.343Z,18.10
2017-11-06T05:53:46.854Z,14.07
2017-11-06T05:56:14.347Z,13.80
2017-11-06T05:58:41.859Z,16.93
2017-11-06T06:01:09.759Z,14.93
2017-11-06T06:03:38.075Z,15.13
2017-11-06T06:06:05.595Z,17.40
2017-11-06T06:08:33.863Z,16.80
2017-11-06T06:11:02.142Z,18.07
2017-11-06T06:13:30.413Z,18.33
2017-11-06T06:15:58.695Z,17.67
2017-11-06T06:18:26.959Z,14.53
2017-11-06T06:20:54.466Z,14.07
2017-11-06T06:23:21.967Z,13.47
2017-11-06T06:25:49.520Z,12.30
2017-11-06T06:28:17.020Z,14.77
2017-11-06T06:30:44.520Z,14.10
2017-11-06T06:33:12.026Z,12.77
2017-11-06T06:35:40.282Z,11.13
2017-11-06T06:38:07.799Z,13.00
2017-11-06T06:40:35.309Z,13.93
2017-11-06T06:43:03.596Z,13.80
2017-11-06T06:45:31.866Z,14.70
2017-11-06T06:48:00.154Z,12.50
2017-11-06T06:50:27.668Z,17.27
2017-11-06T06:52:55.163Z,16.20
2017-11-06T06:55:23.451Z,17.43
2017-11-06T06:57:50.951Z,17.97
2017-11-06T07:00:18.475Z,13.33
2017-11-06T07:02:45.971Z,15.90
2017-11-06T07:05:13.484Z,14.97
2017-11-06T07:07:40.979Z,15.73
2017-11-06T07:10:08.496Z,14.20
2017-11-06T07:12:35.996Z,18.57
2017-11-06T07:15:03.495Z,12.90
2017-11-06T07:17:31.780Z,17.17
2017-11-06T07:20:00.047Z,17.33
2017-11-06T07:22:28.328Z,14.77
2017-11-06T07:24:56.591Z,21.10
2017-11-06T07:27:24.883Z,29.77
2017-11-06T07:29:53.143Z,16.43
2017-11-06T07:32:20.655Z,21.10
2017-11-06T07:34:48.161Z,16.93
2017-11-06T07:37:16.480Z,24.03
2017-11-06T07:39:43.985Z,23.47
2017-11-06T07:42:11.506Z,20.73
2017-11-06T07:44:39.019Z,20.60
2017-11-06T07:47:07.287Z,18.73
2017-11-06T07:49:35.568Z,19.90
2017-11-06T07:52:03.836Z,19.47
2017-11-06T07:54:31.351Z,25.47
2017-11-06T07:56:58.847Z,16.47
2017-11-06T07:59:26.403Z,22.50
2017-11-06T08:01:53.902Z,21.67
2017-11-06T08:04:21.404Z,18.40
2017-11-06T08:06:48.928Z,25.43
2017-11-06T08:09:16.435Z,114.60
2017-11-06T08:11:43.965Z,99.33
2017-11-06T08:14:11.463Z,31.70
2017-11-06T08:16:39.744Z,21.03
2017-11-06T08:19:08.417Z,38.77
2017-11-06T08:21:36.691Z,34.90
2017-11-06T08:24:04.217Z,29.27
2017-11-06T08:26:32.488Z,43.13
2017-11-06T08:29:00.012Z,34.27
2017-11-06T08:31:27.519Z,42.40
2017-11-06T08:33:55.044Z,25.53
2017-11-06T08:36:22.563Z,31.17
2017-11-06T08:38:50.835Z,23.30
2017-11-06T08:41:18.354Z,25.00
2017-11-06T08:43:45.860Z,27.80
2017-11-06T08:46:14.147Z,25.47
2017-11-06T08:48:42.415Z,29.20
2017-11-06T08:51:10.691Z,30.20
2017-11-06T08:53:38.992Z,29.40
2017-11-06T08:56:06.504Z,37.37
2017-11-06T08:58:34.027Z,28.93
2017-11-06T09:01:01.536Z,33.40
2017-11-06T09:03:29.839Z,32.40
2017-11-06T09:05:57.343Z,35.00
2017-11-06T09:08:24.868Z,33.67
2017-11-06T09:10:52.362Z,30.57
2017-11-06T09:13:19.899Z,27.07
2017-11-06T09:15:47.394Z,23.00
2017-11-06T09:18:14.887Z,19.27
2017-11-06T09:20:42.404Z,22.33
2017-11-06T09:23:09.894Z,18.00
2017-11-06T09:25:38.183Z,22.90
2017-11-06T09:28:05.685Z,18.37
2017-11-06T09:30:33.195Z,22.67
2017-11-06T09:33:00.700Z,14.87
2017-11-06T09:35:28.581Z,15.50
2017-11-06T09:37:56.079Z,23.40
2017-11-06T09:40:23.587Z,16.73
2017-11-06T09:42:51.109Z,19.50
2017-11-06T09:45:18.610Z,17.87
2017-11-06T09:47:46.128Z,19.37
2017-11-06T09:50:13.636Z,20.77
2017-11-06T09:52:41.150Z,16.47
2017-11-06T09:55:08.649Z,19.23
2017-11-06T09:57:36.163Z,17.13
2017-11-06T10:00:03.667Z,23.10
2017-11-06T10:02:31.163Z,20.20
2017-11-06T10:04:58.675Z,17.50
2017-11-06T10:07:26.178Z,16.87
2017-11-06T10:09:53.704Z,16.33
2017-11-06T10:12:21.976Z,17.60
2017-11-06T10:14:49.495Z,19.93
2017-11-06T10:17:16.986Z,14.93
2017-11-06T10:19:44.540Z,13.67
2017-11-06T10:22:12.035Z,12.70
2017-11-06T10:24:39.530Z,14.60
2017-11-06T10:27:07.047Z,17.23
2017-11-06T10:29:34.539Z,17.77
2017-11-06T10:32:02.055Z,17.17
2017-11-06T10:34:30.327Z,13.70
2017-11-06T10:36:58.615Z,13.50
2017-11-06T10:39:26.114Z,15.77
2017-11-06T10:41:53.641Z,17.80
2017-11-06T10:44:21.147Z,16.33
2017-11-06T10:46:49.419Z,16.87
2017-11-06T10:49:16.943Z,16.10
2017-11-06T10:51:44.455Z,15.97
2017-11-06T10:54:11.966Z,14.23
2017-11-06T10:56:39.467Z,14.00
2017-11-06T10:59:06.984Z,14.17
2017-11-06T11:01:34.491Z,18.70
2017-11-06T11:04:02.012Z,14.43
2017-11-06T11:06:29.516Z,17.67
2017-11-06T11:08:57.827Z,14.23
2017-11-06T11:11:25.331Z,15.00
2017-11-06T11:13:52.823Z,15.50
2017-11-06T11:16:20.339Z,14.97
2017-11-06T11:18:47.838Z,14.03
2017-11-06T11:21:15.363Z,26.83
2017-11-06T11:23:42.859Z,11.20
2017-11-06T11:26:10.380Z,14.10
2017-11-06T11:28:37.884Z,16.47
2017-11-06T11:31:05.408Z,30.43
2017-11-06T11:33:33.697Z,19.40
2017-11-06T11:36:01.970Z,13.70
2017-11-06T11:38:30.255Z,17.77
2017-11-06T11:40:58.528Z,18.83
2017-11-06T11:43:26.054Z,20.63
2017-11-06T11:45:53.559Z,19.70
2017-11-06T11:48:21.103Z,12.80
2017-11-06T11:50:49.375Z,20.67
2017-11-06T11:53:17.644Z,21.80
2017-11-06T11:55:45.927Z,19.40
2017-11-06T11:58:14.207Z,22.47
2017-11-06T12:00:41.736Z,28.40
2017-11-06T12:03:09.244Z,48.67
2017-11-06T12:05:36.764Z,16.27
2017-11-06T12:08:05.037Z,41.10
2017-11-06T12:10:33.352Z,28.13
2017-11-06T12:13:00.858Z,20.93
2017-11-06T12:15:28.358Z,32.17
2017-11-06T12:17:55.871Z,39.13
2017-11-06T12:20:23.373Z,44.60
2017-11-06T12:22:50.892Z,41.53
2017-11-06T12:25:18.399Z,30.23
2017-11-06T12:27:45.931Z,25.80
2017-11-06T12:30:14.195Z,24.73
2017-11-06T12:32:41.719Z,33.23
2017-11-06T12:35:09.225Z,23.70
2017-11-06T12:37:37.536Z,21.63
2017-11-06T12:40:05.292Z,26.23
2017-11-06T12:42:32.804Z,21.27
2017-11-06T12:45:00.331Z,25.40
2017-11-06T12:47:28.594Z,24.43
2017-11-06T12:49:56.120Z,41.23
2017-11-06T12:52:23.627Z,27.80
2017-11-06T12:54:51.147Z,33.07
2017-11-06T12:57:18.647Z,34.20
2017-11-06T12:59:46.191Z,32.00
2017-11-06T13:02:13.691Z,34.77
2017-11-06T13:04:41.192Z,32.70
2017-11-06T13:07:08.715Z,33.90
2017-11-06T13:09:37.000Z,29.80
2017-11-06T13:12:05.515Z,30.20
2017-11-06T13:14:33.049Z,35.77
2017-11-06T13:17:00.608Z,30.47
2017-11-06T13:19:28.127Z,27.80
2017-11-06T13:21:55.650Z,30.03
2017-11-06T13:24:23.168Z,33.13
2017-11-06T13:26:51.457Z,29.73
2017-11-06T13:29:19.719Z,30.17
2017-11-06T13:31:47.986Z,34.53
2017-11-06T13:34:15.507Z,34.43
2017-11-06T13:36:43.011Z,39.07
2017-11-06T13:39:11.293Z,33.23
2017-11-06T13:41:39.568Z,30.77
2017-11-06T13:44:07.858Z,45.03
2017-11-06T13:46:36.291Z,37.03
2017-11-06T13:49:03.816Z,39.37
2017-11-06T13:51:31.325Z,37.23
2017-11-06T13:53:58.876Z,46.63
2017-11-06T13:56:26.431Z,50.63
2017-11-06T13:58:53.934Z,37.93
2017-11-06T14:01:21.455Z,38.47
2017-11-06T14:03:48.956Z,38.93
2017-11-06T14:06:16.485Z,41.40
2017-11-06T14:08:44.756Z,41.00
2017-11-06T14:11:13.035Z,37.03
2017-11-06T14:13:41.302Z,43.03
2017-11-06T14:16:08.818Z,42.13
2017-11-06T14:18:36.320Z,39.90
2017-11-06T14:21:03.883Z,35.10
2017-11-06T14:23:32.160Z,37.47
2017-11-06T14:26:00.422Z,36.20
2017-11-06T14:28:27.935Z,37.53
2017-11-06T14:30:55.438Z,39.10
2017-11-06T14:33:22.952Z,36.33
2017-11-06T14:35:50.460Z,37.83
2017-11-06T14:38:17.975Z,39.70
2017-11-06T14:40:45.499Z,37.57
2017-11-06T14:43:13.805Z,28.13
2017-11-06T14:45:41.345Z,36.13
2017-11-06T14:48:10.198Z,35.57
2017-11-06T14:50:37.712Z,35.30
2017-11-06T14:53:05.215Z,36.40
2017-11-06T14:55:32.740Z,35.93
2017-11-06T14:58:00.243Z,29.73
2017-11-06T15:00:28.530Z,32.67
2017-11-06T15:02:56.800Z,29.80
2017-11-06T15:05:25.096Z,28.73
2017-11-06T15:07:52.600Z,28.17
2017-11-06T15:10:20.115Z,29.03
2017-11-06T15:12:47.627Z,34.13
2017-11-06T15:15:15.172Z,33.80
2017-11-06T15:17:42.667Z,33.63
2017-11-06T15:20:11.282Z,31.67
2017-11-06T15:22:38.807Z,33.70
2017-11-06T15:25:07.080Z,27.60
2017-11-06T15:27:35.362Z,30.70
2017-11-06T15:30:03.641Z,26.40
2017-11-06T15:32:31.927Z,35.87
2017-11-06T15:34:59.431Z,30.20
2017-11-06T15:37:26.956Z,33.10
2017-11-06T15:39:54.461Z,31.63
2017-11-06T15:42:22.004Z,29.07
2017-11-06T15:44:49.511Z,31.23
2017-11-06T15:47:17.783Z,30.37
2017-11-06T15:49:46.071Z,31.87
2017-11-06T15:52:13.579Z,35.00
2017-11-06T15:54:41.111Z,29.33
2017-11-06T15:57:08.614Z,28.83
2017-11-06T15:59:36.127Z,26.53
2017-11-06T16:02:03.623Z,30.50
2017-11-06T16:04:31.149Z,46.57
2017-11-06T16:06:58.651Z,31.33
2017-11-06T16:09:26.939Z,35.27
2017-11-06T16:11:55.212Z,35.77
2017-11-06T16:14:23.518Z,35.03
2017-11-06T16:16:51.024Z,31.33
2017-11-06T16:19:18.527Z,37.73
2017-11-06T16:21:46.047Z,30.33
2017-11-06T16:24:13.543Z,34.27
2017-11-06T16:26:41.072Z,36.80
2017-11-06T16:29:09.338Z,34.13
2017-11-06T16:31:36.858Z,39.37
2017-11-06T16:34:07.183Z,36.07
2017-11-06T16:36:34.699Z,36.50
2017-11-06T16:39:02.971Z,42.30
2017-11-06T16:41:31.271Z,51.00
2017-11-06T16:43:58.775Z,44.40
2017-11-06T16:46:26.280Z,40.33
2017-11-06T16:48:53.798Z,42.83
2017-11-06T16:51:21.295Z,47.07
2017-11-06T16:53:48.816Z,42.13
2017-11-06T16:56:16.326Z,51.10
2017-11-06T16:58:43.858Z,49.80
2017-11-06T17:01:11.371Z,46.83
2017-11-06T17:03:38.951Z,50.23
2017-11-06T17:06:06.461Z,46.03
2017-11-06T17:08:33.968Z,47.30
2017-11-06T17:11:01.496Z,47.87
2017-11-06T17:13:29.763Z,48.03
2017-11-06T17:15:57.283Z,65.73
2017-11-06T17:18:25.551Z,50.30
2017-11-06T17:20:53.840Z,43.10
2017-11-06T17:23:22.119Z,46.20
2017-11-06T17:25:50.405Z,54.07
2017-11-06T17:28:17.919Z,50.63
2017-11-06T17:30:45.467Z,53.83
2017-11-06T17:33:13.736Z,44.73
2017-11-06T17:35:41.238Z,49.00
2017-11-06T17:38:09.536Z,46.67
2017-11-06T17:40:37.038Z,50.70
2017-11-06T17:43:04.567Z,43.53
2017-11-06T17:45:32.080Z,45.20
2017-11-06T17:48:00.364Z,44.33
2017-11-06T17:50:28.638Z,47.33
2017-11-06T17:52:56.924Z,47.93
2017-11-06T17:55:24.433Z,46.27
2017-11-06T17:57:52.744Z,44.07
2017-11-06T18:00:21.007Z,44.53
2017-11-06T18:02:48.506Z,37.57
2017-11-06T18:05:16.027Z,39.43
2017-11-06T18:07:44.378Z,38.57
2017-11-06T18:10:11.913Z,36.40
2017-11-06T18:12:39.423Z,40.03
2017-11-06T18:15:06.948Z,36.67
2017-11-06T18:17:34.455Z,41.93
2017-11-06T18:20:02.743Z,40.30
2017-11-06T18:22:30.252Z,40.60
2017-11-06T18:24:58.185Z,41.23
2017-11-06T18:27:25.687Z,42.97
2017-11-06T18:29:53.193Z,46.97
2017-11-06T18:32:20.729Z,39.47
2017-11-06T18:34:49.000Z,43.27
2017-11-06T18:37:17.283Z,38.70
2017-11-06T18:39:45.550Z,38.53
2017-11-06T18:42:13.835Z,39.70
2017-11-06T18:44:42.112Z,40.83
2017-11-06T18:47:10.400Z,41.70
2017-11-06T18:49:37.907Z,43.43
2017-11-06T18:52:05.473Z,46.90
2017-11-06T18:54:32.979Z,48.00
2017-11-06T18:57:00.486Z,38.73
2017-11-06T18:59:28.008Z,52.83
2017-11-06T19:01:55.516Z,47.90
2017-11-06T19:04:23.043Z,48.23
2017-11-06T19:06:50.547Z,48.87
2017-11-06T19:09:18.831Z,43.07
2017-11-06T19:11:47.091Z,41.60
2017-11-06T19:14:15.383Z,46.77
2017-11-06T19:16:43.647Z,43.80
2017-11-06T19:19:11.956Z,45.50
2017-11-06T19:21:39.459Z,44.47
2017-11-06T19:24:06.958Z,46.60
2017-11-06T19:26:34.480Z,45.53
2017-11-06T19:29:01.974Z,47.43
2017-11-06T19:31:29.499Z,43.60
2017-11-06T19:33:57.000Z,39.77
2017-11-06T19:36:24.520Z,38.03
2017-11-06T19:38:52.016Z,37.67
2017-11-06T19:41:19.559Z,36.70
2017-11-06T19:43:47.837Z,37.70
2017-11-06T19:46:16.099Z,34.33
2017-11-06T19:48:43.949Z,34.63
2017-11-06T19:51:11.448Z,41.00
2017-11-06T19:53:38.967Z,38.27
2017-11-06T19:56:06.476Z,36.97
2017-11-06T19:58:33.995Z,44.57
2017-11-06T20:01:02.264Z,44.50
2017-11-06T20:03:30.556Z,43.07
2017-11-06T20:05:58.823Z,45.00
2017-11-06T20:08:27.135Z,44.77
2017-11-06T20:10:54.642Z,42.67
2017-11-06T20:13:22.199Z,41.73
2017-11-06T20:15:49.715Z,34.33
2017-11-06T20:18:17.261Z,34.00
2017-11-06T20:20:44.807Z,34.37
2017-11-06T20:23:12.307Z,35.70
2017-11-06T20:25:39.832Z,35.73
2017-11-06T20:28:07.336Z,44.30
2017-11-06T20:30:34.851Z,35.67
2017-11-06T20:33:02.356Z,33.43
2017-11-06T20:35:29.912Z,29.90
2017-11-06T20:37:57.419Z,35.13
2017-11-06T20:40:24.914Z,20.70
2017-11-06T20:42:52.430Z,23.53
2017-11-06T20:45:20.694Z,23.87
2017-11-06T20:47:48.980Z,21.30
2017-11-06T20:50:17.242Z,22.10
2017-11-06T20:52:45.522Z,23.13
2017-11-06T20:55:13.804Z,23.03
2017-11-06T20:57:42.107Z,18.67
2017-11-06T21:00:09.598Z,20.47
2017-11-06T21:02:37.109Z,23.40
2017-11-06T21:05:04.629Z,20.17
2017-11-06T21:07:32.131Z,22.40
2017-11-06T21:09:59.663Z,20.40
2017-11-06T21:12:27.936Z,22.93
2017-11-06T21:14:56.224Z,23.63
2017-11-06T21:17:24.491Z,23.87
2017-11-06T21:19:52.767Z,20.77
2017-11-06T21:22:21.040Z,22.60
2017-11-06T21:24:49.352Z,23.17
2017-11-06T21:27:16.851Z,22.57
2017-11-06T21:29:49.971Z,21.57
2017-11-06T21:32:18.247Z,21.03
2017-11-06T21:34:46.507Z,18.10
2017-11-06T21:37:14.022Z,22.83
2017-11-06T21:39:41.519Z,24.20
2017-11-06T21:42:09.040Z,23.60
2017-11-06T21:44:36.544Z,23.70
2017-11-06T21:47:04.827Z,22.40
2017-11-06T21:49:33.090Z,22.53
2017-11-06T21:52:00.612Z,25.90
2017-11-06T21:54:28.128Z,23.20
2017-11-06T21:56:56.390Z,21.13
2017-11-06T21:59:24.680Z,28.27
2017-11-06T22:01:52.947Z,23.40
2017-11-06T22:04:21.226Z,23.97
2017-11-06T22:06:49.492Z,23.60
2017-11-06T22:09:17.779Z,26.07
2017-11-06T22:11:46.048Z,20.63
2017-11-06T22:14:14.349Z,24.73
2017-11-06T22:16:41.863Z,25.47
2017-11-06T22:19:09.362Z,28.87
2017-11-06T22:21:36.917Z,25.70
2017-11-06T22:24:04.426Z,20.80
2017-11-06T22:26:31.935Z,27.03
2017-11-06T22:28:59.436Z,26.03
2017-11-06T22:31:26.974Z,22.07
2017-11-06T22:33:54.476Z,20.30
2017-11-06T22:36:21.975Z,23.23
2017-11-06T22:38:49.487Z,24.90
2017-11-06T22:41:16.992Z,25.87
2017-11-06T22:43:44.519Z,23.63
2017-11-06T22:46:12.788Z,24.93
2017-11-06T22:48:40.303Z,25.30
2017-11-06T22:51:07.804Z,22.30
2017-11-06T22:53:35.346Z,23.53
2017-11-06T22:56:02.846Z,25.77
2017-11-06T22:58:30.350Z,24.43
2017-11-06T23:00:57.872Z,25.90
2017-11-06T23:03:25.386Z,24.03
2017-11-06T23:05:52.903Z,25.30
2017-11-06T23:08:20.404Z,30.90
2017-11-06T23:10:47.928Z,28.87
2017-11-06T23:13:15.422Z,27.03
2017-11-06T23:15:42.971Z,23.50
2017-11-06T23:18:10.474Z,27.60
2017-11-06T23:20:37.980Z,27.00
2017-11-06T23:23:05.508Z,29.43
2017-11-06T23:25:33.007Z,26.90
2017-11-06T23:28:00.536Z,32.27
2017-11-06T23:30:28.041Z,26.03
2017-11-06T23:32:56.329Z,27.20
2017-11-06T23:35:24.594Z,31.47
2017-11-06T23:37:52.892Z,35.47
2017-11-06T23:40:20.386Z,24.67
2017-11-06T23:42:47.912Z,28.67
2017-11-06T23:45:15.433Z,26.57
2017-11-06T23:47:42.953Z,29.77
2017-11-06T23:50:10.455Z,32.53
2017-11-06T23:52:37.975Z,30.97
2017-11-06T23:55:05.471Z,27.17
2017-11-06T23:57:32.992Z,31.50
